Time;durP1;ratioP1;P1;durP2;ratioP2;P2;SDS_P1;SDS_P2;PMS_P1;PMS_P2;Temp;Humidity;BMP_temperature;BMP_pressure;BME280_temperature;BME280_humidity;BME280_pressure;Samples;Min_cycle;Max_cycle;Signal;HPM_P1;HPM_P2
2023/08/31 00:02:22;;;;;;;3.83;1.50;;;;;;;13.39;67.32;99249.28;10390801;28;20055;-59
2023/08/31 00:07:24;;;;;;;2.58;1.52;;;;;;;13.29;67.64;99253.63;10392835;28;20053;-59
2023/08/31 00:12:26;;;;;;;4.47;1.40;;;;;;;13.23;67.88;99251.50;10391743;28;20061;-59
2023/08/31 00:17:29;;;;;;;3.38;1.48;;;;;;;13.14;68.05;99254.88;10390496;28;20140;-59
2023/08/31 00:22:31;;;;;;;2.67;1.83;;;;;;;13.19;67.71;99260.59;10418203;28;20050;-60
2023/08/31 00:27:34;;;;;;;3.05;1.50;;;;;;;13.14;67.77;99257.47;10392812;28;20396;-58
2023/08/31 00:32:39;;;;;;;2.70;1.77;;;;;;;13.11;67.99;99263.81;10403152;28;20061;-58
2023/08/31 00:37:41;;;;;;;4.80;1.65;;;;;;;13.06;68.06;99259.91;10388351;28;20099;-58
2023/08/31 00:42:43;;;;;;;2.85;1.50;;;;;;;13.15;67.89;99253.91;10387800;28;20092;-58
2023/08/31 00:47:47;;;;;;;4.50;1.50;;;;;;;13.16;67.88;99263.44;10394006;28;20042;-58
2023/08/31 00:52:49;;;;;;;3.40;1.65;;;;;;;13.18;67.78;99264.16;10392736;28;20155;-58
2023/08/31 00:57:52;;;;;;;3.50;1.40;;;;;;;13.20;67.67;99262.25;10394951;28;20049;-58
2023/08/31 01:03:30;;;;;;;3.92;1.60;;;;;;;13.13;67.81;99247.97;10395968;28;20646;-58
2023/08/31 01:08:56;;;;;;;2.50;1.42;;;;;;;13.08;67.93;99257.97;10388194;28;20052;-58
2023/08/31 01:14:08;;;;;;;2.60;1.30;;;;;;;13.00;67.62;99255.13;10394277;28;20362;-58
2023/08/31 01:19:28;;;;;;;2.17;1.45;;;;;;;12.83;67.67;99252.06;10407621;28;20501;-58
2023/08/31 01:24:31;;;;;;;3.30;1.60;;;;;;;12.72;67.70;99252.06;10389155;28;20045;-59
2023/08/31 01:29:34;;;;;;;2.47;1.45;;;;;;;12.69;67.70;99254.13;10418162;28;20049;-59
2023/08/31 01:34:36;;;;;;;1.90;1.50;;;;;;;12.66;67.84;99252.56;10389993;28;20580;-59
2023/08/31 01:39:52;;;;;;;2.65;1.60;;;;;;;12.63;68.01;99268.56;10387604;28;20037;-60
2023/08/31 01:44:57;;;;;;;7.07;2.60;;;;;;;12.59;67.70;99266.28;10392525;28;20041;-59
2023/08/31 01:49:59;;;;;;;4.07;1.80;;;;;;;12.55;67.69;99264.88;10392740;28;20053;-59
2023/08/31 01:55:03;;;;;;;3.00;1.63;;;;;;;12.52;67.64;99267.72;10398886;28;20042;-59
2023/08/31 02:00:05;;;;;;;6.32;1.50;;;;;;;12.50;67.59;99273.09;10400571;28;20416;-59
2023/08/31 02:05:15;;;;;;;2.20;1.40;;;;;;;12.54;67.69;99274.50;10394849;28;20413;-59
2023/08/31 02:10:17;;;;;;;4.00;1.90;;;;;;;12.63;67.92;99271.19;10393634;28;20501;-59
2023/08/31 02:15:21;;;;;;;3.05;1.88;;;;;;;12.77;67.75;99270.94;10393293;28;20435;-59
2023/08/31 02:20:24;;;;;;;5.03;1.70;;;;;;;12.95;67.80;99277.34;10393180;28;20498;-59
2023/08/31 02:25:27;;;;;;;2.63;1.52;;;;;;;12.99;67.66;99270.03;10405105;28;20413;-59
2023/08/31 02:30:30;;;;;;;3.40;1.60;;;;;;;13.02;67.53;99261.09;10397837;28;20600;-59
2023/08/31 02:35:32;;;;;;;3.08;1.65;;;;;;;13.06;67.44;99278.28;10393384;28;20045;-60
2023/08/31 02:40:34;;;;;;;3.30;1.77;;;;;;;12.86;67.93;99275.44;10405491;28;21730;-59
2023/08/31 02:45:37;;;;;;;3.97;1.70;;;;;;;12.81;67.93;99282.84;10394430;28;20049;-59
2023/08/31 02:50:39;;;;;;;2.92;1.70;;;;;;;12.76;68.09;99282.38;10407273;28;20048;-59
2023/08/31 02:55:42;;;;;;;4.03;1.52;;;;;;;12.81;67.90;99274.97;10409840;28;20048;-59
2023/08/31 03:00:47;;;;;;;5.05;2.10;;;;;;;12.77;67.89;99275.34;10393401;28;20081;-59
2023/08/31 03:05:55;;;;;;;5.60;2.00;;;;;;;12.59;68.47;99282.88;10405247;28;20119;-59
2023/08/31 03:10:58;;;;;;;2.75;1.73;;;;;;;12.51;68.73;99280.00;10402380;28;21139;-60
2023/08/31 03:16:00;;;;;;;3.42;1.85;;;;;;;12.58;68.64;99281.19;10396582;28;20512;-60
2023/08/31 03:21:03;;;;;;;4.07;1.85;;;;;;;12.72;68.26;99280.13;10408260;28;20045;-59
2023/08/31 03:26:09;;;;;;;3.20;1.65;;;;;;;12.80;68.17;99291.66;10425385;28;20497;-59
2023/08/31 03:31:11;;;;;;;3.65;1.88;;;;;;;12.89;67.85;99292.72;10406926;28;20140;-59
2023/08/31 03:36:13;;;;;;;6.80;2.30;;;;;;;12.87;67.67;99295.50;10392716;28;20329;-59
2023/08/31 03:41:15;;;;;;;4.47;1.70;;;;;;;12.91;67.65;99298.69;10395673;28;20763;-59
2023/08/31 03:46:17;;;;;;;3.00;1.80;;;;;;;12.89;67.52;99303.22;10392295;28;20049;-59
2023/08/31 03:51:19;;;;;;;2.78;1.67;;;;;;;12.74;67.32;99302.66;10396748;28;20480;-59
2023/08/31 03:56:21;;;;;;;3.80;1.80;;;;;;;12.59;67.79;99306.47;10390399;28;20123;-59
2023/08/31 04:01:24;;;;;;;3.40;1.70;;;;;;;12.46;67.74;99316.25;10428650;28;20128;-60
2023/08/31 04:06:27;;;;;;;3.20;1.85;;;;;;;12.31;68.04;99325.31;10425422;28;20049;-60
2023/08/31 04:11:29;;;;;;;2.88;1.67;;;;;;;12.25;68.01;99324.91;10391984;28;20056;-58
2023/08/31 04:16:32;;;;;;;2.60;1.50;;;;;;;12.13;67.87;99330.09;10389532;28;20049;-59
2023/08/31 04:21:34;;;;;;;2.80;1.70;;;;;;;12.10;67.97;99332.13;10390322;28;20053;-59
2023/08/31 04:26:36;;;;;;;5.60;2.00;;;;;;;12.05;68.15;99336.88;10390945;28;20044;-59
2023/08/31 04:31:39;;;;;;;3.40;1.70;;;;;;;12.01;67.91;99338.03;10395660;28;20051;-59
2023/08/31 04:36:41;;;;;;;3.10;2.00;;;;;;;11.98;67.92;99346.16;10389659;28;20493;-59
2023/08/31 04:41:42;;;;;;;3.03;1.70;;;;;;;11.95;68.23;99362.09;10394532;28;20476;-59
2023/08/31 04:46:44;;;;;;;2.83;1.48;;;;;;;11.89;68.32;99362.53;10390113;28;20481;-59
2023/08/31 04:51:46;;;;;;;10.15;2.10;;;;;;;11.85;68.47;99374.19;10395915;28;20045;-59
2023/08/31 04:56:48;;;;;;;3.10;1.25;;;;;;;11.90;68.30;99375.56;10407049;28;20129;-59
2023/08/31 05:01:50;;;;;;;6.13;2.00;;;;;;;12.05;68.02;99386.66;10389619;28;20045;-61
2023/08/31 05:06:52;;;;;;;2.70;1.35;;;;;;;12.14;68.01;99402.56;10389033;28;20045;-60
2023/08/31 05:11:55;;;;;;;2.88;1.50;;;;;;;12.25;67.58;99393.91;10387725;28;20448;-60
2023/08/31 05:16:57;;;;;;;2.80;1.60;;;;;;;12.20;67.65;99388.16;10392280;28;21224;-59
2023/08/31 05:21:59;;;;;;;3.38;1.35;;;;;;;12.24;67.38;99392.22;10400822;28;20809;-59
2023/08/31 05:27:02;;;;;;;1.77;1.30;;;;;;;12.57;67.13;99401.97;10403628;28;20254;-60
2023/08/31 05:32:07;;;;;;;5.60;1.60;;;;;;;12.93;66.54;99407.84;10390722;28;20049;-60
2023/08/31 05:37:09;;;;;;;4.00;1.90;;;;;;;13.16;66.04;99418.34;10387067;28;20474;-60
2023/08/31 05:42:11;;;;;;;4.25;1.40;;;;;;;13.36;65.93;99415.00;10410664;28;20083;-61
2023/08/31 05:47:13;;;;;;;4.70;1.58;;;;;;;13.59;65.03;99416.66;10399155;28;20059;-60
2023/08/31 05:52:15;;;;;;;3.17;1.40;;;;;;;13.57;64.87;99423.84;10418447;28;20053;-60
2023/08/31 05:57:19;;;;;;;2.53;1.17;;;;;;;13.42;65.10;99419.75;10420126;28;20664;-60
2023/08/31 06:02:21;;;;;;;2.90;1.60;;;;;;;13.51;65.04;99437.47;10387644;28;20200;-60
2023/08/31 06:07:23;;;;;;;2.53;1.42;;;;;;;13.50;64.62;99435.78;10385114;28;20065;-61
2023/08/31 06:12:27;;;;;;;6.85;1.88;;;;;;;13.57;64.61;99444.84;10379273;28;20061;-61
2023/08/31 06:17:29;;;;;;;2.53;1.40;;;;;;;13.48;64.70;99443.78;10385945;28;20055;-60
2023/08/31 06:22:31;;;;;;;1.50;1.02;;;;;;;13.69;64.29;99449.97;10385471;28;20180;-61
2023/08/31 06:27:33;;;;;;;2.50;1.20;;;;;;;13.76;63.84;99447.66;10386204;28;20069;-60
2023/08/31 06:32:35;;;;;;;3.05;1.63;;;;;;;13.69;64.11;99449.13;10386249;28;20049;-60
2023/08/31 06:37:38;;;;;;;2.65;1.65;;;;;;;13.77;64.16;99451.97;10402410;28;20100;-61
2023/08/31 06:42:40;;;;;;;2.53;1.48;;;;;;;13.86;63.94;99455.66;10401956;28;20386;-60
2023/08/31 06:47:42;;;;;;;2.53;1.50;;;;;;;13.84;63.95;99461.03;10393753;28;20545;-63
2023/08/31 06:52:58;;;;;;;3.72;1.70;;;;;;;13.95;63.93;99461.00;10408053;28;20064;-61
2023/08/31 06:58:02;;;;;;;2.88;1.30;;;;;;;14.07;63.50;99460.00;10398029;28;20505;-61
2023/08/31 07:03:07;;;;;;;4.13;1.23;;;;;;;14.48;63.08;99467.13;10396140;28;20325;-61
2023/08/31 07:08:10;;;;;;;1.27;1.00;;;;;;;15.13;61.85;99466.84;10403869;28;20073;-61
2023/08/31 07:13:12;;;;;;;2.33;1.10;;;;;;;15.87;60.52;99470.91;10404087;28;20061;-61
2023/08/31 07:18:15;;;;;;;3.05;1.33;;;;;;;16.30;59.73;99465.25;10391685;28;20045;-61
2023/08/31 07:23:17;;;;;;;2.95;1.85;;;;;;;16.58;58.86;99464.41;10394990;28;20057;-61
2023/08/31 07:28:19;;;;;;;2.15;1.52;;;;;;;17.11;57.83;99462.06;10390100;28;20049;-60
2023/08/31 07:33:21;;;;;;;4.75;1.40;;;;;;;17.46;55.68;99468.38;10394185;28;21292;-61
2023/08/31 07:38:33;;;;;;;3.92;1.75;;;;;;;17.56;56.46;99460.38;10392088;28;20048;-61
2023/08/31 07:43:35;;;;;;;3.00;1.25;;;;;;;17.68;55.58;99470.63;10393129;28;20482;-61
2023/08/31 07:48:37;;;;;;;2.33;1.20;;;;;;;17.87;55.31;99469.69;10389752;28;20267;-61
2023/08/31 07:53:39;;;;;;;4.22;1.30;;;;;;;18.20;54.56;99477.00;10394691;28;20052;-61
2023/08/31 07:58:42;;;;;;;3.78;1.10;;;;;;;18.13;54.52;99483.84;10404490;28;20521;-61
2023/08/31 08:03:44;;;;;;;2.38;1.02;;;;;;;18.51;54.05;99490.69;10389491;28;20061;-61
2023/08/31 08:08:46;;;;;;;1.58;0.90;;;;;;;18.54;52.81;99495.69;10390246;28;20157;-62
2023/08/31 08:13:48;;;;;;;3.03;1.17;;;;;;;18.31;53.06;99499.75;10402404;28;20151;-62
2023/08/31 08:18:50;;;;;;;3.60;0.90;;;;;;;18.61;53.17;99504.66;10389580;28;20060;-61
2023/08/31 08:23:55;;;;;;;4.60;1.33;;;;;;;18.53;52.72;99513.38;10397126;28;20572;-61
2023/08/31 08:28:57;;;;;;;2.25;1.45;;;;;;;18.67;52.28;99520.78;10388255;28;20038;-61
2023/08/31 08:34:00;;;;;;;2.38;1.30;;;;;;;18.48;52.45;99520.94;10395374;28;20068;-61
2023/08/31 08:39:02;;;;;;;1.88;1.10;;;;;;;18.69;52.25;99523.28;10388146;28;20053;-61
2023/08/31 08:44:07;;;;;;;2.55;1.50;;;;;;;18.68;51.52;99529.56;10388923;28;20041;-60
2023/08/31 08:49:10;;;;;;;3.90;1.60;;;;;;;18.60;52.09;99543.59;10402735;28;20059;-61
2023/08/31 08:54:13;;;;;;;1.40;0.88;;;;;;;19.15;50.74;99533.63;10392809;28;20203;-60
2023/08/31 08:59:16;;;;;;;1.73;1.00;;;;;;;20.40;49.19;99524.06;10395430;28;20045;-61
2023/08/31 09:04:18;;;;;;;1.92;1.05;;;;;;;20.41;48.46;99526.53;10393362;28;20046;-61
2023/08/31 09:09:21;;;;;;;4.40;1.35;;;;;;;20.45;47.16;99521.72;10388270;28;20386;-61
2023/08/31 09:14:23;;;;;;;4.45;1.10;;;;;;;20.27;47.51;99524.53;10388435;28;20049;-61
2023/08/31 09:19:28;;;;;;;2.47;1.10;;;;;;;20.07;47.26;99525.81;10388116;28;20060;-61
2023/08/31 09:24:40;;;;;;;2.40;0.93;;;;;;;20.48;46.14;99527.53;10388350;28;20061;-60
2023/08/31 09:29:45;;;;;;;3.13;1.17;;;;;;;20.89;45.70;99533.72;10389835;28;20527;-60
2023/08/31 09:34:49;;;;;;;1.85;1.00;;;;;;;20.31;47.31;99539.13;10389111;28;20049;-61
2023/08/31 09:40:04;;;;;;;2.20;1.08;;;;;;;20.77;46.76;99532.41;10388266;28;20398;-61
2023/08/31 09:45:06;;;;;;;3.53;1.10;;;;;;;20.69;46.45;99538.53;10389033;28;20038;-61
2023/08/31 09:50:09;;;;;;;2.90;1.10;;;;;;;20.20;46.67;99536.78;10387165;28;20092;-61
2023/08/31 09:55:13;;;;;;;1.85;1.00;;;;;;;20.49;46.74;99531.03;10385110;28;20052;-61
2023/08/31 10:00:15;;;;;;;1.20;0.93;;;;;;;20.32;46.31;99540.78;10386749;28;20582;-61
2023/08/31 10:05:18;;;;;;;2.65;1.20;;;;;;;21.07;45.21;99529.88;10389396;28;20045;-61
2023/08/31 10:10:24;;;;;;;2.55;1.40;;;;;;;21.29;44.65;99532.84;10386063;28;20065;-61
2023/08/31 10:15:33;;;;;;;3.55;1.27;;;;;;;21.01;42.66;99533.22;10393290;28;20058;-61
2023/08/31 10:20:35;;;;;;;2.88;1.55;;;;;;;20.54;44.82;99529.53;10392788;28;20413;-61
2023/08/31 10:25:49;;;;;;;1.48;1.08;;;;;;;20.13;44.32;99527.81;10397406;28;20054;-61
2023/08/31 10:31:04;;;;;;;3.30;1.00;;;;;;;20.54;43.91;99539.34;10394493;28;20065;-61
2023/08/31 10:36:15;;;;;;;5.20;1.15;;;;;;;21.02;43.72;99526.91;10393560;28;20045;-62
2023/08/31 10:41:19;;;;;;;2.80;1.40;;;;;;;20.84;44.31;99528.94;10407918;28;20056;-62
2023/08/31 10:46:28;;;;;;;3.72;1.05;;;;;;;20.53;44.72;99527.88;10392125;28;20056;-61
2023/08/31 10:51:31;;;;;;;3.67;1.20;;;;;;;20.06;45.31;99540.06;10399281;28;20060;-60
2023/08/31 10:56:33;;;;;;;2.97;1.20;;;;;;;20.35;45.52;99529.00;10396574;28;20055;-61
2023/08/31 11:01:58;;;;;;;2.53;1.30;;;;;;;20.20;43.79;99521.69;10397377;28;20061;-61
2023/08/31 11:07:20;;;;;;;2.38;1.13;;;;;;;19.86;45.13;99528.03;10393034;28;20112;-61
2023/08/31 11:12:22;;;;;;;2.45;1.10;;;;;;;19.82;45.94;99534.66;10390349;28;20072;-61
2023/08/31 11:17:25;;;;;;;1.23;1.13;;;;;;;20.20;45.55;99529.66;10401046;28;20049;-61
2023/08/31 11:22:32;;;;;;;1.98;1.20;;;;;;;20.76;44.46;99520.13;10397929;28;20590;-60
2023/08/31 11:27:34;;;;;;;2.17;1.20;;;;;;;20.83;44.66;99516.63;10397714;28;20406;-61
2023/08/31 11:32:36;;;;;;;4.03;1.10;;;;;;;20.36;44.14;99506.78;10397381;28;20045;-61
2023/08/31 11:37:38;;;;;;;2.72;1.50;;;;;;;20.62;44.50;99503.00;10391039;28;20322;-61
2023/08/31 11:42:41;;;;;;;4.25;1.10;;;;;;;20.46;43.81;99491.53;10428413;28;20041;-61
2023/08/31 11:47:44;;;;;;;2.58;1.10;;;;;;;20.58;44.61;99485.72;10391874;28;20117;-61
2023/08/31 11:52:46;;;;;;;0.88;0.77;;;;;;;20.73;43.87;99481.41;10395369;28;20167;-61
2023/08/31 11:57:56;;;;;;;2.38;1.17;;;;;;;20.51;42.79;99484.72;10394951;28;20203;-62
2023/08/31 12:02:59;;;;;;;2.15;1.15;;;;;;;20.45;43.91;99487.19;10392793;28;20054;-62
2023/08/31 12:08:02;;;;;;;1.92;0.82;;;;;;;20.67;43.12;99490.06;10391179;28;20426;-61
2023/08/31 12:13:09;;;;;;;4.35;1.45;;;;;;;20.58;42.42;99485.72;10394125;28;20111;-60
2023/08/31 12:18:13;;;;;;;4.63;1.42;;;;;;;20.72;43.04;99489.56;10395322;28;20041;-61
2023/08/31 12:23:16;;;;;;;2.50;1.10;;;;;;;20.95;43.00;99475.41;10391153;28;20148;-61
2023/08/31 12:28:20;;;;;;;2.03;0.98;;;;;;;20.82;41.81;99474.28;10391624;28;20395;-61
2023/08/31 12:33:22;;;;;;;2.08;1.20;;;;;;;21.00;42.43;99486.38;10392642;28;20418;-61
2023/08/31 12:38:24;;;;;;;2.13;0.88;;;;;;;21.19;42.12;99476.38;10392151;28;20128;-61
2023/08/31 12:43:26;;;;;;;1.35;1.10;;;;;;;21.59;41.28;99476.25;10392427;28;20048;-62
2023/08/31 12:48:28;;;;;;;3.22;0.90;;;;;;;21.34;39.98;99487.97;10392334;28;20409;-61
2023/08/31 12:53:30;;;;;;;2.53;1.05;;;;;;;21.53;40.31;99471.63;10389228;28;20529;-61
2023/08/31 12:58:32;;;;;;;3.08;1.00;;;;;;;21.66;40.34;99477.25;10396853;28;20444;-61
2023/08/31 13:03:35;;;;;;;3.10;1.30;;;;;;;22.03;39.45;99476.53;10391278;28;20052;-61
2023/08/31 13:08:37;;;;;;;3.05;1.40;;;;;;;22.06;39.32;99477.06;10383420;28;20033;-61
2023/08/31 13:13:41;;;;;;;1.45;0.98;;;;;;;22.11;37.34;99477.34;10387991;28;20057;-62
2023/08/31 13:18:44;;;;;;;1.52;0.95;;;;;;;22.32;38.74;99464.22;10383257;28;20072;-62
2023/08/31 13:23:46;;;;;;;2.85;1.30;;;;;;;22.04;38.62;99463.09;10389069;28;20087;-61
2023/08/31 13:28:48;;;;;;;2.85;1.10;;;;;;;21.39;39.58;99465.19;10384279;28;20040;-61
2023/08/31 13:33:50;;;;;;;1.63;1.08;;;;;;;21.26;39.56;99466.69;10386187;28;20133;-62
2023/08/31 13:38:52;;;;;;;6.10;2.10;;;;;;;21.03;39.65;99464.75;10374955;28;20037;-62
2023/08/31 13:43:54;;;;;;;1.50;0.80;;;;;;;20.99;39.93;99454.63;10385185;28;20129;-61
2023/08/31 13:48:56;;;;;;;4.85;1.02;;;;;;;21.29;39.65;99437.94;10383256;28;20037;-61
2023/08/31 13:53:58;;;;;;;2.70;1.17;;;;;;;21.57;39.43;99451.66;10384593;28;20044;-61
2023/08/31 13:59:00;;;;;;;1.83;0.90;;;;;;;21.71;38.77;99449.09;10384837;28;20046;-62
2023/08/31 14:04:03;;;;;;;1.98;1.00;;;;;;;21.44;39.18;99456.69;10385326;28;20034;-62
2023/08/31 14:09:05;;;;;;;2.47;1.08;;;;;;;20.88;39.75;99461.16;10389212;28;20052;-61
2023/08/31 14:14:10;;;;;;;3.13;1.20;;;;;;;20.54;39.96;99454.31;10395984;28;20757;-61
2023/08/31 14:19:13;;;;;;;2.35;1.23;;;;;;;20.48;39.69;99442.50;10387662;28;20049;-62
2023/08/31 14:24:16;;;;;;;2.95;1.20;;;;;;;20.48;40.48;99447.81;10385187;28;20779;-62
2023/08/31 14:29:18;;;;;;;3.05;1.30;;;;;;;20.50;40.04;99447.69;10383482;28;20040;-61
2023/08/31 14:34:20;;;;;;;1.70;1.00;;;;;;;20.33;40.44;99446.84;10385399;28;20060;-61
2023/08/31 14:39:24;;;;;;;1.67;0.90;;;;;;;20.21;39.52;99448.16;10383682;28;20099;-61
2023/08/31 14:44:26;;;;;;;2.33;1.55;;;;;;;20.15;38.22;99446.97;10385154;28;20048;-61
2023/08/31 14:49:28;;;;;;;3.95;1.58;;;;;;;20.27;39.95;99458.13;10386523;28;20037;-61
2023/08/31 14:54:31;;;;;;;2.47;1.13;;;;;;;20.46;38.88;99460.44;10384387;28;20213;-61
2023/08/31 14:59:34;;;;;;;2.55;1.45;;;;;;;20.55;39.19;99456.81;10387708;28;20045;-61
2023/08/31 15:04:37;;;;;;;1.55;0.90;;;;;;;21.21;38.90;99456.59;10392820;28;20056;-61
2023/08/31 15:09:39;;;;;;;3.83;1.17;;;;;;;21.24;38.40;99464.22;10395813;28;20056;-61
2023/08/31 15:14:41;;;;;;;2.45;1.13;;;;;;;21.29;38.86;99472.53;10393210;28;20405;-61
2023/08/31 15:19:44;;;;;;;2.40;1.10;;;;;;;;;;10389461;28;20501;-62
2023/08/31 15:24:47;;;;;;;2.20;1.30;;;;;;;21.71;38.50;99470.38;10391792;28;20521;-62
2023/08/31 15:29:51;;;;;;;2.15;0.90;;;;;;;22.01;38.27;99455.41;10389375;28;20404;-61
2023/08/31 15:34:54;;;;;;;2.58;1.13;;;;;;;21.79;38.10;99456.19;10389603;28;20155;-61
2023/08/31 15:39:57;;;;;;;1.58;0.85;;;;;;;21.66;38.41;99463.94;10389490;28;20065;-61
2023/08/31 15:44:59;;;;;;;2.35;1.10;;;;;;;21.28;38.20;99472.66;10427837;28;20552;-61
2023/08/31 15:50:01;;;;;;;6.63;1.17;;;;;;;21.15;37.85;99475.03;10388852;28;20076;-61
2023/08/31 15:55:04;;;;;;;2.88;1.02;;;;;;;21.14;37.92;99473.38;10387109;28;20334;-61
2023/08/31 16:00:11;;;;;;;4.25;1.45;;;;;;;21.02;38.23;99484.38;10389417;28;20984;-61
2023/08/31 16:05:13;;;;;;;2.53;1.20;;;;;;;21.09;38.35;99485.34;10389087;28;20064;-61
2023/08/31 16:10:15;;;;;;;4.13;1.17;;;;;;;20.92;38.04;99488.22;10394197;28;20068;-61
2023/08/31 16:15:17;;;;;;;2.80;1.20;;;;;;;20.76;38.71;99494.38;10387250;28;20509;-61
2023/08/31 16:20:19;;;;;;;3.67;1.25;;;;;;;20.86;38.78;99492.38;10388133;28;20623;-61
2023/08/31 16:25:21;;;;;;;1.48;0.95;;;;;;;20.74;39.08;99492.88;10390075;28;20052;-61
2023/08/31 16:30:23;;;;;;;2.63;1.08;;;;;;;20.73;39.55;99499.19;10386263;28;20077;-61
2023/08/31 16:35:25;;;;;;;5.03;1.25;;;;;;;20.54;39.43;99489.66;10388933;28;20059;-60
2023/08/31 16:40:27;;;;;;;2.33;1.10;;;;;;;20.18;40.00;99501.59;10387083;28;20053;-60
2023/08/31 16:45:29;;;;;;;2.60;1.17;;;;;;;19.96;40.50;99496.88;10389600;28;20505;-59
2023/08/31 16:50:33;;;;;;;3.72;1.10;;;;;;;19.74;40.74;99495.63;10386890;28;20045;-60
2023/08/31 16:55:47;;;;;;;2.63;1.30;;;;;;;19.65;41.54;99501.06;10385272;28;20132;-59
2023/08/31 17:00:49;;;;;;;1.83;1.00;;;;;;;19.56;41.85;99504.69;10387080;28;20043;-60
2023/08/31 17:05:52;;;;;;;1.60;0.93;;;;;;;19.46;41.61;99507.41;10388270;28;20070;-60
2023/08/31 17:10:54;;;;;;;3.63;1.15;;;;;;;19.37;42.69;99508.38;10394908;28;20596;-60
2023/08/31 17:15:56;;;;;;;3.55;1.20;;;;;;;19.33;42.51;99502.56;10387248;28;20061;-60
2023/08/31 17:20:58;;;;;;;3.45;1.17;;;;;;;19.25;42.76;99515.78;10391460;28;20135;-60
2023/08/31 17:26:00;;;;;;;4.18;1.13;;;;;;;19.11;43.40;99507.56;10384087;28;20048;-60
2023/08/31 17:31:04;;;;;;;2.90;1.35;;;;;;;19.02;43.59;99514.63;10383262;28;20509;-60
2023/08/31 17:36:08;;;;;;;2.97;1.33;;;;;;;18.94;44.09;99516.34;10384871;28;20055;-61
2023/08/31 17:41:10;;;;;;;1.50;1.00;;;;;;;18.88;44.24;99511.66;10397195;28;20045;-61
2023/08/31 17:46:12;;;;;;;3.30;1.20;;;;;;;18.72;44.34;99516.84;10382839;28;20216;-61
2023/08/31 17:51:14;;;;;;;4.60;1.83;;;;;;;18.56;44.83;99522.84;10387012;28;20476;-61
2023/08/31 17:56:16;;;;;;;5.38;1.58;;;;;;;18.48;45.73;99530.72;10384394;28;20037;-61
2023/08/31 18:01:18;;;;;;;2.90;1.20;;;;;;;18.35;45.96;99538.19;10387908;28;20506;-61
2023/08/31 18:06:20;;;;;;;2.95;1.60;;;;;;;18.24;46.46;99546.38;10381646;28;21106;-61
2023/08/31 18:11:23;;;;;;;6.32;1.63;;;;;;;18.12;46.77;99548.34;10390201;28;20049;-61
2023/08/31 18:16:25;;;;;;;2.25;1.20;;;;;;;17.92;46.63;99551.22;10381609;28;20058;-61
2023/08/31 18:21:27;;;;;;;3.70;1.45;;;;;;;17.77;46.73;99545.63;10385221;28;20053;-59
2023/08/31 18:26:29;;;;;;;1.52;1.15;;;;;;;17.73;47.01;99560.94;10389279;28;20052;-59
2023/08/31 18:31:31;;;;;;;4.03;1.65;;;;;;;17.58;46.97;99559.75;10388624;28;20038;-60
2023/08/31 18:36:33;;;;;;;2.50;1.40;;;;;;;17.53;46.83;99575.22;10389247;28;20363;-60
2023/08/31 18:41:37;;;;;;;4.10;1.63;;;;;;;17.43;47.03;99574.41;10391261;28;20425;-60
2023/08/31 18:46:38;;;;;;;3.70;1.60;;;;;;;17.41;46.64;99580.81;10392083;28;20040;-61
2023/08/31 18:51:43;;;;;;;2.00;1.05;;;;;;;17.32;47.08;99576.38;10407548;28;20057;-60
2023/08/31 18:56:46;;;;;;;4.53;1.40;;;;;;;17.31;47.12;99586.09;10395960;28;20476;-60
2023/08/31 19:01:48;;;;;;;2.85;1.20;;;;;;;17.29;47.08;99592.50;10397939;28;20418;-60
2023/08/31 19:06:52;;;;;;;3.00;1.30;;;;;;;17.28;47.48;99589.00;10395031;28;20049;-60
2023/08/31 19:11:55;;;;;;;3.05;1.35;;;;;;;17.10;47.77;99600.47;10392628;28;20069;-60
2023/08/31 19:16:57;;;;;;;4.53;1.63;;;;;;;16.93;47.56;99612.56;10395915;28;20810;-60
2023/08/31 19:22:00;;;;;;;2.80;1.40;;;;;;;16.96;48.10;99613.13;10396412;28;20037;-60
2023/08/31 19:27:02;;;;;;;3.10;1.30;;;;;;;16.91;47.92;99625.09;10393240;28;20486;-60
2023/08/31 19:32:05;;;;;;;4.53;1.30;;;;;;;16.87;47.97;99632.44;10395975;28;20102;-60
2023/08/31 19:37:08;;;;;;;6.05;1.50;;;;;;;16.96;48.16;99636.06;10395935;28;20048;-60
2023/08/31 19:42:10;;;;;;;3.90;1.27;;;;;;;16.92;48.42;99637.31;10390860;28;20052;-61
2023/08/31 19:47:12;;;;;;;3.13;1.23;;;;;;;16.75;48.69;99627.44;10395352;28;20048;-60
2023/08/31 19:52:17;;;;;;;3.35;1.50;;;;;;;16.64;49.07;99632.84;10392011;28;20049;-60
2023/08/31 19:57:19;;;;;;;3.05;1.20;;;;;;;16.62;49.27;99632.13;10398141;28;20178;-60
2023/08/31 20:02:21;;;;;;;4.53;1.85;;;;;;;16.70;49.63;99637.56;10403400;28;20049;-60
2023/08/31 20:07:23;;;;;;;4.40;1.63;;;;;;;16.77;49.90;99642.16;10400288;28;20521;-60
2023/08/31 20:12:26;;;;;;;2.60;1.20;;;;;;;16.77;50.10;99633.41;10389874;28;20048;-61
2023/08/31 20:17:28;;;;;;;4.45;1.40;;;;;;;16.78;50.22;99635.91;10395645;28;20054;-60
2023/08/31 20:22:30;;;;;;;3.15;1.38;;;;;;;16.77;50.22;99644.78;10397040;28;20147;-60
2023/08/31 20:27:32;;;;;;;2.30;1.45;;;;;;;16.75;50.58;99649.38;10404301;28;20055;-60
2023/08/31 20:32:37;;;;;;;2.40;1.30;;;;;;;16.82;51.24;99641.75;10397967;28;20049;-60
2023/08/31 20:37:39;;;;;;;4.57;1.40;;;;;;;16.85;51.25;99644.13;10393201;28;20065;-60
2023/08/31 20:42:42;;;;;;;5.30;1.92;;;;;;;16.81;51.17;99661.22;10407414;28;20042;-61
2023/08/31 20:47:44;;;;;;;3.95;1.27;;;;;;;16.79;51.78;99650.78;10396404;28;20049;-61
2023/08/31 20:52:47;;;;;;;3.72;1.45;;;;;;;16.81;51.68;99645.38;10433331;28;20128;-60
2023/08/31 20:57:49;;;;;;;3.70;1.15;;;;;;;16.83;52.00;99659.28;10394234;28;20646;-60
2023/08/31 21:02:52;;;;;;;4.10;1.40;;;;;;;16.91;51.99;99660.25;10393793;28;20402;-61
2023/08/31 21:07:54;;;;;;;6.47;1.65;;;;;;;16.88;52.69;99652.59;10424732;28;20049;-60
2023/08/31 21:12:56;;;;;;;3.13;1.58;;;;;;;16.80;52.81;99643.69;10389463;28;20057;-60
2023/08/31 21:17:59;;;;;;;3.08;1.50;;;;;;;16.80;53.04;99641.88;10402941;28;20049;-61
2023/08/31 21:23:01;;;;;;;5.00;1.45;;;;;;;16.77;53.27;99646.63;10388561;28;20811;-61
2023/08/31 21:28:03;;;;;;;3.75;1.50;;;;;;;16.78;53.49;99650.91;10387629;28;20033;-60
2023/08/31 21:33:06;;;;;;;5.68;1.40;;;;;;;16.78;53.69;99650.91;10393776;28;20049;-61
2023/08/31 21:38:08;;;;;;;4.28;1.70;;;;;;;16.77;53.80;99647.44;10388665;28;20045;-60
2023/08/31 21:43:10;;;;;;;5.85;1.80;;;;;;;16.67;53.76;99637.84;10390642;28;20131;-60
2023/08/31 21:48:12;;;;;;;2.92;1.50;;;;;;;16.69;54.21;99630.63;10389081;28;20527;-61
2023/08/31 21:53:15;;;;;;;4.95;1.83;;;;;;;16.70;54.50;99637.56;10391568;28;20102;-60
2023/08/31 21:58:17;;;;;;;6.78;1.65;;;;;;;16.66;54.69;99634.38;10393873;28;20504;-60
2023/08/31 22:03:19;;;;;;;3.80;1.60;;;;;;;16.65;55.35;99630.06;10392154;28;20152;-61
2023/08/31 22:08:21;;;;;;;2.95;1.52;;;;;;;16.63;55.28;99634.63;10387624;28;21659;-60
2023/08/31 22:13:23;;;;;;;2.75;1.35;;;;;;;16.58;55.28;99636.88;10387782;28;20057;-60
2023/08/31 22:18:27;;;;;;;3.88;1.38;;;;;;;16.57;55.77;99627.25;10390088;28;20171;-60
2023/08/31 22:23:29;;;;;;;4.22;1.40;;;;;;;16.59;55.63;99627.16;10387488;28;20060;-61
2023/08/31 22:28:31;;;;;;;2.92;1.45;;;;;;;16.59;55.70;99638.53;10386521;28;20056;-61
2023/08/31 22:33:33;;;;;;;4.15;1.60;;;;;;;16.59;55.87;99633.25;10386464;28;20188;-61
2023/08/31 22:38:35;;;;;;;5.30;1.50;;;;;;;16.58;55.87;99625.47;10388777;28;20049;-61
2023/08/31 22:43:40;;;;;;;3.47;1.88;;;;;;;16.34;56.04;99622.34;10388213;28;20053;-60
2023/08/31 22:48:43;;;;;;;3.47;1.60;;;;;;;16.22;56.43;99626.91;10386566;28;20080;-61
2023/08/31 22:53:47;;;;;;;3.95;1.65;;;;;;;16.21;56.79;99626.06;10386246;28;20049;-61
2023/08/31 22:58:49;;;;;;;2.85;1.50;;;;;;;16.16;56.82;99627.44;10386981;28;20053;-61
2023/08/31 23:03:51;;;;;;;4.68;1.27;;;;;;;16.02;57.37;99638.31;10386185;28;20042;-60
2023/08/31 23:08:53;;;;;;;4.97;1.40;;;;;;;15.94;57.38;99633.72;10384786;28;20409;-60
2023/08/31 23:13:55;;;;;;;5.90;1.60;;;;;;;16.01;57.52;99629.59;10384730;28;20049;-60
2023/08/31 23:18:58;;;;;;;2.97;1.73;;;;;;;16.23;57.48;99628.56;10385262;28;20053;-61
2023/08/31 23:24:00;;;;;;;3.92;1.33;;;;;;;16.33;57.65;99629.41;10392894;28;20042;-61
2023/08/31 23:29:02;;;;;;;3.97;1.83;;;;;;;16.34;57.47;99625.81;10390656;28;20057;-58
2023/08/31 23:34:04;;;;;;;2.47;1.30;;;;;;;16.37;57.56;99619.41;10391008;28;20052;-58